Time;durP1;ratioP1;P1;durP2;ratioP2;P2;SDS_P1;SDS_P2;PMS_P1;PMS_P2;Temp;Humidity;BMP_temperature;BMP_pressure;BME280_temperature;BME280_humidity;BME280_pressure;Samples;Min_cycle;Max_cycle;Signal;HPM_P1;HPM_P2
2021/11/25 00:01:03;;;;;;;22.13;15.07;;;;;;;;;;4418856;32;20296;-59
2021/11/25 00:03:29;;;;;;;27.30;15.23;;;;;;;;;;4419654;32;20224;-58
2021/11/25 00:05:54;;;;;;;22.43;15.17;;;;;;;;;;4420382;32;20299;-58
2021/11/25 00:08:20;;;;;;;24.03;13.87;;;;;;;;;;4420362;32;20665;-59
2021/11/25 00:10:45;;;;;;;22.43;14.23;;;;;;;;;;4420096;32;20339;-59
2021/11/25 00:13:12;;;;;;;22.40;14.33;;;;;;;;;;4420215;32;20251;-59
2021/11/25 00:15:38;;;;;;;23.00;14.27;;;;;;;;;;4420545;32;20342;-58
2021/11/25 00:18:04;;;;;;;25.67;13.97;;;;;;;;;;4420132;32;20229;-58
2021/11/25 00:20:31;;;;;;;15.90;11.37;;;;;;;;;;4419966;32;20276;-59
2021/11/25 00:22:57;;;;;;;18.27;13.30;;;;;;;;;;4418771;32;20369;-59
2021/11/25 00:25:22;;;;;;;21.67;13.00;;;;;;;;;;4419954;32;20285;-58
2021/11/25 00:27:48;;;;;;;21.47;14.03;;;;;;;;;;4419728;32;20399;-58
2021/11/25 00:30:14;;;;;;;20.23;11.83;;;;;;;;;;4418748;32;20323;-59
2021/11/25 00:32:41;;;;;;;16.57;11.97;;;;;;;;;;4420004;32;20205;-58
2021/11/25 00:35:11;;;;;;;22.47;13.20;;;;;;;;;;4420065;32;20224;-58
2021/11/25 00:37:37;;;;;;;16.00;11.43;;;;;;;;;;4405491;32;20312;-58
2021/11/25 00:40:06;;;;;;;32.83;12.70;;;;;;;;;;4404655;32;20206;-59
2021/11/25 00:42:31;;;;;;;18.80;13.00;;;;;;;;;;4408303;32;20205;-58
2021/11/25 00:44:57;;;;;;;20.10;13.20;;;;;;;;;;4419514;32;20391;-58
2021/11/25 00:47:22;;;;;;;17.43;12.77;;;;;;;;;;4419610;32;20201;-58
2021/11/25 00:49:47;;;;;;;20.00;13.60;;;;;;;;;;4419812;32;20387;-59
2021/11/25 00:52:13;;;;;;;22.60;13.17;;;;;;;;;;4418828;32;20208;-58
2021/11/25 00:54:38;;;;;;;20.33;13.93;;;;;;;;;;4419745;32;20225;-58
2021/11/25 00:57:04;;;;;;;18.70;12.80;;;;;;;;;;4419225;32;20389;-58
2021/11/25 00:59:30;;;;;;;17.43;12.63;;;;;;;;;;4418284;32;20269;-58
2021/11/25 01:01:55;;;;;;;20.73;13.23;;;;;;;;;;4418773;32;20271;-58
2021/11/25 01:04:22;;;;;;;23.07;13.33;;;;;;;;;;4418088;32;20240;-57
2021/11/25 01:06:48;;;;;;;22.13;15.03;;;;;;;;;;4417876;32;20370;-58
2021/11/25 01:09:13;;;;;;;22.03;14.63;;;;;;;;;;4419466;32;20233;-58
2021/11/25 01:11:39;;;;;;;21.97;14.50;;;;;;;;;;4418495;32;20224;-58
2021/11/25 01:14:04;;;;;;;21.37;14.83;;;;;;;;;;4419469;32;20305;-57
2021/11/25 01:16:30;;;;;;;22.47;14.07;;;;;;;;;;4419228;32;20233;-58
2021/11/25 01:18:55;;;;;;;21.73;13.90;;;;;;;;;;4419207;32;20370;-58
2021/11/25 01:21:21;;;;;;;22.10;14.40;;;;;;;;;;4419127;32;20701;-58
2021/11/25 01:23:46;;;;;;;26.00;16.93;;;;;;;;;;4419144;32;20228;-58
2021/11/25 01:26:12;;;;;;;19.73;14.27;;;;;;;;;;4418985;32;20587;-58
2021/11/25 01:28:37;;;;;;;20.20;13.83;;;;;;;;;;4419360;32;20272;-58
2021/11/25 01:31:03;;;;;;;25.37;13.17;;;;;;;;;;4419235;32;20294;-58
2021/11/25 01:33:30;;;;;;;24.70;15.00;;;;;;;;;;4407326;32;20568;-59
2021/11/25 01:35:57;;;;;;;24.37;15.00;;;;;;;;;;4404269;32;20372;-58
2021/11/25 01:38:23;;;;;;;27.07;14.77;;;;;;;;;;4404139;32;20690;-57
2021/11/25 01:40:49;;;;;;;23.60;14.50;;;;;;;;;;4403750;32;20283;-58
2021/11/25 01:43:21;;;;;;;25.33;14.23;;;;;;;;;;4411231;32;20255;-58
2021/11/25 01:45:48;;;;;;;24.50;15.10;;;;;;;;;;4419311;32;20524;-58
2021/11/25 01:48:13;;;;;;;24.00;15.80;;;;;;;;;;4419013;32;20679;-58
2021/11/25 01:50:39;;;;;;;22.70;14.07;;;;;;;;;;4417542;32;20303;-58
2021/11/25 01:53:05;;;;;;;23.63;15.27;;;;;;;;;;4418663;32;20317;-59
2021/11/25 01:55:30;;;;;;;20.93;13.90;;;;;;;;;;4418549;32;20375;-59
2021/11/25 01:57:56;;;;;;;26.03;14.47;;;;;;;;;;4418653;32;20343;-58
2021/11/25 02:00:24;;;;;;;19.20;12.97;;;;;;;;;;4419114;32;20337;-58
2021/11/25 02:02:51;;;;;;;25.83;14.07;;;;;;;;;;4418019;32;20226;-58
2021/11/25 02:05:17;;;;;;;20.43;13.47;;;;;;;;;;4419001;32;20189;-58
2021/11/25 02:07:42;;;;;;;26.10;14.17;;;;;;;;;;4418392;32;20197;-59
2021/11/25 02:10:08;;;;;;;19.13;12.63;;;;;;;;;;4417474;32;20699;-59
2021/11/25 02:12:34;;;;;;;20.87;14.23;;;;;;;;;;4418339;32;20258;-58
2021/11/25 02:14:59;;;;;;;20.67;13.23;;;;;;;;;;4417506;32;20296;-58
2021/11/25 02:17:25;;;;;;;20.03;13.30;;;;;;;;;;4418300;32;20193;-59
2021/11/25 02:19:51;;;;;;;20.43;13.40;;;;;;;;;;4418593;32;20705;-60
2021/11/25 02:22:20;;;;;;;21.03;13.67;;;;;;;;;;4417941;32;20276;-59
2021/11/25 02:24:49;;;;;;;22.03;14.60;;;;;;;;;;4418222;32;20260;-58
2021/11/25 02:27:18;;;;;;;23.90;14.27;;;;;;;;;;4418104;32;20292;-59
2021/11/25 02:29:43;;;;;;;21.00;13.80;;;;;;;;;;4417365;32;20294;-59
2021/11/25 02:32:09;;;;;;;29.50;14.80;;;;;;;;;;4418268;32;20589;-57
2021/11/25 02:34:34;;;;;;;25.10;14.47;;;;;;;;;;4417931;32;20217;-59
2021/11/25 02:36:59;;;;;;;26.03;14.13;;;;;;;;;;4418204;32;20697;-59
2021/11/25 02:39:26;;;;;;;20.23;12.80;;;;;;;;;;4418307;32;20629;-58
2021/11/25 02:41:52;;;;;;;25.93;12.93;;;;;;;;;;4418000;32;20201;-59
2021/11/25 02:44:17;;;;;;;21.50;13.60;;;;;;;;;;4418245;32;20485;-59
2021/11/25 02:46:48;;;;;;;24.57;12.27;;;;;;;;;;4418250;32;20213;-58
2021/11/25 02:49:13;;;;;;;21.60;11.87;;;;;;;;;;4418604;32;20204;-59
2021/11/25 02:51:38;;;;;;;23.10;13.10;;;;;;;;;;4417721;32;20531;-58
2021/11/25 02:54:04;;;;;;;21.27;12.47;;;;;;;;;;4418279;32;20301;-57
2021/11/25 02:56:30;;;;;;;23.00;12.97;;;;;;;;;;4416136;32;20280;-58
2021/11/25 02:58:57;;;;;;;17.87;12.60;;;;;;;;;;4418003;32;20365;-58
2021/11/25 03:01:29;;;;;;;17.53;12.60;;;;;;;;;;4417626;32;20244;-58
2021/11/25 03:03:56;;;;;;;20.07;12.93;;;;;;;;;;4417746;32;20244;-59
2021/11/25 03:06:21;;;;;;;20.53;12.50;;;;;;;;;;4417717;32;20209;-58
2021/11/25 03:08:47;;;;;;;17.07;11.77;;;;;;;;;;4417998;32;20603;-58
2021/11/25 03:11:15;;;;;;;19.20;11.70;;;;;;;;;;4417975;32;20276;-58
2021/11/25 03:13:44;;;;;;;18.43;11.83;;;;;;;;;;4417808;32;20233;-59
2021/11/25 03:16:11;;;;;;;16.90;11.63;;;;;;;;;;4417643;32;20231;-58
2021/11/25 03:18:38;;;;;;;16.57;11.70;;;;;;;;;;4417844;32;20628;-59
2021/11/25 03:21:04;;;;;;;23.00;13.40;;;;;;;;;;4417541;32;20235;-58
2021/11/25 03:23:33;;;;;;;23.73;13.40;;;;;;;;;;4417958;32;20718;-59
2021/11/25 03:26:00;;;;;;;24.37;13.50;;;;;;;;;;4405782;32;20280;-58
2021/11/25 03:28:26;;;;;;;20.23;13.20;;;;;;;;;;4402479;32;20266;-58
2021/11/25 03:30:55;;;;;;;28.20;17.63;;;;;;;;;;4402397;32;20201;-58
2021/11/25 03:33:24;;;;;;;22.77;14.93;;;;;;;;;;4402620;32;20309;-58
2021/11/25 03:35:49;;;;;;;26.70;14.07;;;;;;;;;;4404922;32;20202;-59
2021/11/25 03:38:15;;;;;;;21.83;15.47;;;;;;;;;;4405222;32;20247;-58
2021/11/25 03:40:41;;;;;;;23.63;15.40;;;;;;;;;;4405266;32;20396;-58
2021/11/25 03:43:06;;;;;;;25.07;14.27;;;;;;;;;;4412907;32;20665;-58
2021/11/25 03:45:32;;;;;;;19.10;14.50;;;;;;;;;;4420872;32;20688;-60
2021/11/25 03:47:57;;;;;;;20.93;13.77;;;;;;;;;;4420536;32;20581;-58
2021/11/25 03:50:23;;;;;;;30.50;16.00;;;;;;;;;;4419373;32;20292;-59
2021/11/25 03:52:48;;;;;;;26.87;17.20;;;;;;;;;;4420154;32;20829;-59
2021/11/25 03:55:15;;;;;;;21.60;13.93;;;;;;;;;;4420336;32;20765;-58
2021/11/25 03:57:41;;;;;;;33.33;16.27;;;;;;;;;;4418777;32;20228;-58
2021/11/25 04:00:10;;;;;;;28.17;16.10;;;;;;;;;;4420407;32;20256;-59
2021/11/25 04:02:36;;;;;;;23.50;16.17;;;;;;;;;;4419721;32;20648;-58
2021/11/25 04:05:02;;;;;;;20.90;14.33;;;;;;;;;;4420522;32;20280;-58
2021/11/25 04:07:28;;;;;;;29.17;15.53;;;;;;;;;;4420511;32;20205;-59
2021/11/25 04:09:53;;;;;;;20.97;15.63;;;;;;;;;;4420351;32;20217;-59
2021/11/25 04:12:19;;;;;;;24.40;16.43;;;;;;;;;;4420388;32;20238;-58
2021/11/25 04:14:44;;;;;;;27.87;16.67;;;;;;;;;;4420199;32;20731;-58
2021/11/25 04:17:10;;;;;;;47.60;24.17;;;;;;;;;;4420221;32;20239;-59
2021/11/25 04:19:35;;;;;;;37.40;21.47;;;;;;;;;;4419855;32;20302;-58
2021/11/25 04:22:01;;;;;;;36.33;19.67;;;;;;;;;;4419794;32;20300;-59
2021/11/25 04:24:27;;;;;;;30.30;17.20;;;;;;;;;;4419979;32;20232;-58
2021/11/25 04:26:52;;;;;;;29.73;15.93;;;;;;;;;;4419993;32;20247;-58
2021/11/25 04:29:18;;;;;;;27.70;17.87;;;;;;;;;;4419074;32;20379;-59
2021/11/25 04:37:15;;;;;;;29.43;18.10;;;;;;;;;;4420021;32;20274;-59
2021/11/25 04:39:41;;;;;;;28.30;14.97;;;;;;;;;;4419480;32;20531;-58
2021/11/25 04:42:06;;;;;;;30.97;16.73;;;;;;;;;;4418598;32;20213;-58
2021/11/25 04:44:32;;;;;;;24.37;15.30;;;;;;;;;;4418441;32;20232;-58
2021/11/25 04:46:57;;;;;;;24.90;15.00;;;;;;;;;;4417814;32;20708;-58
2021/11/25 04:49:23;;;;;;;20.97;13.90;;;;;;;;;;4420067;32;20221;-59
2021/11/25 04:51:48;;;;;;;22.03;14.30;;;;;;;;;;4418422;32;20316;-58
2021/11/25 04:54:14;;;;;;;30.93;17.03;;;;;;;;;;4418275;32;20263;-59
2021/11/25 04:56:39;;;;;;;29.90;18.80;;;;;;;;;;4419662;32;20637;-58
2021/11/25 04:59:05;;;;;;;33.20;20.33;;;;;;;;;;4419944;32;20276;-59
2021/11/25 05:01:30;;;;;;;25.37;15.83;;;;;;;;;;4415758;32;20237;-58
2021/11/25 05:03:56;;;;;;;25.33;14.83;;;;;;;;;;4418648;32;20676;-59
2021/11/25 05:06:21;;;;;;;26.83;15.90;;;;;;;;;;4419836;32;20200;-58
2021/11/25 05:08:47;;;;;;;24.63;16.90;;;;;;;;;;4419205;32;20299;-58
2021/11/25 05:11:13;;;;;;;26.43;15.60;;;;;;;;;;4419808;32;20261;-59
2021/11/25 05:13:39;;;;;;;32.03;16.73;;;;;;;;;;4419290;32;20736;-59
2021/11/25 05:16:05;;;;;;;24.70;16.17;;;;;;;;;;4419482;32;20275;-59
2021/11/25 05:18:31;;;;;;;32.10;19.87;;;;;;;;;;4415095;32;20277;-58
2021/11/25 05:20:56;;;;;;;29.70;18.60;;;;;;;;;;4415437;32;20686;-59
2021/11/25 05:23:22;;;;;;;65.70;38.23;;;;;;;;;;4404091;32;20360;-59
2021/11/25 05:25:48;;;;;;;64.63;35.03;;;;;;;;;;4403763;32;20704;-58
2021/11/25 05:28:14;;;;;;;59.40;29.60;;;;;;;;;;4404083;32;20314;-59
2021/11/25 05:30:39;;;;;;;45.60;28.37;;;;;;;;;;4403709;32;20280;-59
2021/11/25 05:33:05;;;;;;;46.83;25.33;;;;;;;;;;4402438;32;20234;-58
2021/11/25 05:35:31;;;;;;;45.47;26.63;;;;;;;;;;4403927;32;20277;-59
2021/11/25 05:37:57;;;;;;;48.07;25.90;;;;;;;;;;4403596;32;20328;-59
2021/11/25 05:40:23;;;;;;;40.63;24.83;;;;;;;;;;4404120;32;20335;-58
2021/11/25 05:42:49;;;;;;;44.77;25.27;;;;;;;;;;4409322;32;20381;-58
2021/11/25 05:45:17;;;;;;;42.63;24.00;;;;;;;;;;4419174;32;20581;-59
2021/11/25 05:47:43;;;;;;;49.83;30.93;;;;;;;;;;4418702;32;20266;-58
2021/11/25 05:50:12;;;;;;;47.67;26.60;;;;;;;;;;4419227;32;20240;-59
2021/11/25 05:52:38;;;;;;;39.40;24.67;;;;;;;;;;4417918;32;20263;-59
2021/11/25 05:55:05;;;;;;;40.43;20.80;;;;;;;;;;4418851;32;20727;-58
2021/11/25 05:57:31;;;;;;;36.20;21.30;;;;;;;;;;4418230;32;20299;-58
2021/11/25 05:59:56;;;;;;;37.63;23.33;;;;;;;;;;4419071;32;20288;-58
2021/11/25 06:02:21;;;;;;;42.47;20.30;;;;;;;;;;4414417;32;20295;-59
2021/11/25 06:04:48;;;;;;;39.73;20.47;;;;;;;;;;4403780;32;20230;-58
2021/11/25 06:07:14;;;;;;;39.03;24.50;;;;;;;;;;4403570;32;20206;-58
2021/11/25 06:09:39;;;;;;;46.90;24.70;;;;;;;;;;4402976;32;20226;-59
2021/11/25 06:12:06;;;;;;;57.63;36.60;;;;;;;;;;4402074;32;20229;-59
2021/11/25 06:14:33;;;;;;;33.00;23.17;;;;;;;;;;4411750;32;20581;-58
2021/11/25 06:16:58;;;;;;;38.27;21.43;;;;;;;;;;4418166;32;20334;-58
2021/11/25 06:19:24;;;;;;;35.17;22.33;;;;;;;;;;4415851;32;21149;-58
2021/11/25 06:21:49;;;;;;;36.50;22.30;;;;;;;;;;4402978;32;20235;-59
2021/11/25 06:24:15;;;;;;;43.60;29.20;;;;;;;;;;4402791;32;20221;-59
2021/11/25 06:26:42;;;;;;;46.50;28.87;;;;;;;;;;4402397;32;20280;-58
2021/11/25 06:29:08;;;;;;;50.83;27.47;;;;;;;;;;4402872;32;20241;-58
2021/11/25 06:31:34;;;;;;;45.07;27.03;;;;;;;;;;4400719;32;20338;-59
2021/11/25 06:33:59;;;;;;;46.40;29.93;;;;;;;;;;4402994;32;20359;-59
2021/11/25 06:36:25;;;;;;;50.57;31.73;;;;;;;;;;4402929;32;20255;-58
2021/11/25 06:38:50;;;;;;;59.83;30.63;;;;;;;;;;4402243;32;20257;-59
2021/11/25 06:41:16;;;;;;;47.00;28.50;;;;;;;;;;4403021;32;20222;-59
2021/11/25 06:43:41;;;;;;;42.67;24.20;;;;;;;;;;4410030;32;20333;-58
2021/11/25 06:46:07;;;;;;;39.03;20.03;;;;;;;;;;4400841;32;20225;-58
2021/11/25 06:48:32;;;;;;;29.10;16.93;;;;;;;;;;4401110;32;20253;-58
2021/11/25 06:50:57;;;;;;;35.20;20.67;;;;;;;;;;4402681;32;20452;-59
2021/11/25 06:53:25;;;;;;;25.17;16.07;;;;;;;;;;4402683;32;20259;-59
2021/11/25 06:55:51;;;;;;;28.47;16.10;;;;;;;;;;4400674;32;20209;-59
2021/11/25 06:58:16;;;;;;;27.80;16.30;;;;;;;;;;4405178;32;20237;-58
2021/11/25 07:00:42;;;;;;;30.57;16.77;;;;;;;;;;4416009;32;20326;-58
2021/11/25 07:03:07;;;;;;;32.40;15.47;;;;;;;;;;4405021;32;20274;-58
2021/11/25 07:05:33;;;;;;;30.93;17.47;;;;;;;;;;4400897;32;20304;-59
2021/11/25 07:07:58;;;;;;;32.70;15.20;;;;;;;;;;4400594;32;20234;-58
2021/11/25 07:10:25;;;;;;;28.13;16.17;;;;;;;;;;4406926;32;20341;-59
2021/11/25 07:12:50;;;;;;;29.03;18.13;;;;;;;;;;4415839;32;20614;-59
2021/11/25 07:15:18;;;;;;;24.40;16.67;;;;;;;;;;4416156;32;20363;-60
2021/11/25 07:17:46;;;;;;;26.70;14.97;;;;;;;;;;4416880;32;20735;-59
2021/11/25 07:20:12;;;;;;;30.13;17.33;;;;;;;;;;4416771;32;20216;-57
2021/11/25 07:22:38;;;;;;;28.07;15.63;;;;;;;;;;4416725;32;20527;-59
2021/11/25 07:25:06;;;;;;;26.63;15.87;;;;;;;;;;4417772;32;20269;-59
2021/11/25 07:27:32;;;;;;;29.60;15.83;;;;;;;;;;4417540;32;20205;-59
2021/11/25 07:29:57;;;;;;;31.47;14.30;;;;;;;;;;4417657;32;20304;-59
2021/11/25 07:32:24;;;;;;;23.17;13.73;;;;;;;;;;4417903;32;20592;-58
2021/11/25 07:34:50;;;;;;;22.87;12.93;;;;;;;;;;4417902;32;20622;-58
2021/11/25 07:37:15;;;;;;;24.40;12.60;;;;;;;;;;4417689;32;20209;-58
2021/11/25 07:39:41;;;;;;;23.70;13.73;;;;;;;;;;4417669;32;20221;-58
2021/11/25 07:42:06;;;;;;;18.37;13.83;;;;;;;;;;4417591;32;20328;-58
2021/11/25 07:44:32;;;;;;;29.80;14.67;;;;;;;;;;4417435;32;20255;-58
2021/11/25 07:46:57;;;;;;;22.97;12.67;;;;;;;;;;4417004;32;20213;-59
2021/11/25 07:49:24;;;;;;;27.77;13.13;;;;;;;;;;4417354;32;20535;-58
2021/11/25 07:51:50;;;;;;;24.43;13.90;;;;;;;;;;4417091;32;20243;-59
2021/11/25 07:54:16;;;;;;;23.93;14.67;;;;;;;;;;4417271;32;20710;-58
2021/11/25 07:56:41;;;;;;;36.30;17.10;;;;;;;;;;4404556;32;20323;-59
2021/11/25 07:59:07;;;;;;;28.30;16.90;;;;;;;;;;4411673;32;20302;-57
2021/11/25 08:01:33;;;;;;;29.20;15.13;;;;;;;;;;4416675;32;20220;-58
2021/11/25 08:03:59;;;;;;;27.07;14.37;;;;;;;;;;4416732;32;20308;-57
2021/11/25 08:06:24;;;;;;;26.33;14.83;;;;;;;;;;4412979;32;20237;-59
2021/11/25 08:08:50;;;;;;;21.27;11.80;;;;;;;;;;4401918;32;20312;-59
2021/11/25 08:11:15;;;;;;;20.43;12.87;;;;;;;;;;4401821;32;20304;-59
2021/11/25 08:13:41;;;;;;;20.87;12.50;;;;;;;;;;4400681;32;20233;-59
2021/11/25 08:16:08;;;;;;;19.77;13.40;;;;;;;;;;4402102;32;20257;-58
2021/11/25 08:18:34;;;;;;;23.03;15.07;;;;;;;;;;4399189;32;20234;-58
2021/11/25 08:20:59;;;;;;;18.73;12.83;;;;;;;;;;4387248;32;20414;-58
2021/11/25 08:23:24;;;;;;;23.07;11.53;;;;;;;;;;4402876;32;20249;-59
2021/11/25 08:25:50;;;;;;;19.50;12.37;;;;;;;;;;4401760;32;20399;-59
2021/11/25 08:28:16;;;;;;;28.07;16.53;;;;;;;;;;4402892;32;20305;-58
2021/11/25 08:30:42;;;;;;;28.67;18.73;;;;;;;;;;4402388;32;20233;-60
2021/11/25 08:33:08;;;;;;;23.77;14.43;;;;;;;;;;4402944;32;20699;-59
2021/11/25 08:35:33;;;;;;;20.50;12.70;;;;;;;;;;4414187;32;20813;-59
2021/11/25 08:38:00;;;;;;;19.73;12.13;;;;;;;;;;4402885;32;20683;-58
2021/11/25 08:40:26;;;;;;;24.63;16.67;;;;;;;;;;4403282;32;20237;-59
2021/11/25 08:42:51;;;;;;;21.30;15.37;;;;;;;;;;4409480;32;20263;-58
2021/11/25 08:45:17;;;;;;;24.43;15.40;;;;;;;;;;4419024;32;20351;-59
2021/11/25 08:47:44;;;;;;;30.50;14.03;;;;;;;;;;4411536;32;20231;-59
2021/11/25 08:50:12;;;;;;;25.97;14.13;;;;;;;;;;4403494;32;20340;-59
2021/11/25 08:52:38;;;;;;;25.10;14.67;;;;;;;;;;4402509;32;20236;-60
2021/11/25 08:55:05;;;;;;;27.23;13.47;;;;;;;;;;4402840;32;20590;-60
2021/11/25 08:57:30;;;;;;;22.57;14.17;;;;;;;;;;4401306;32;20255;-60
2021/11/25 08:59:56;;;;;;;23.43;15.83;;;;;;;;;;4416946;32;20280;-59
2021/11/25 09:02:22;;;;;;;21.20;14.17;;;;;;;;;;4415700;32;20307;-59
2021/11/25 09:04:48;;;;;;;20.23;14.00;;;;;;;;;;4418499;32;20229;-59
2021/11/25 09:07:13;;;;;;;22.83;13.83;;;;;;;;;;4417233;32;20205;-59
2021/11/25 09:09:39;;;;;;;23.77;13.80;;;;;;;;;;4429258;32;20328;-59
2021/11/25 09:12:05;;;;;;;23.87;14.60;;;;;;;;;;4417288;32;20294;-59
2021/11/25 09:14:30;;;;;;;24.47;14.63;;;;;;;;;;4417319;32;20237;-58
2021/11/25 09:16:56;;;;;;;21.17;15.00;;;;;;;;;;4416134;32;20262;-58
2021/11/25 09:19:22;;;;;;;26.70;15.50;;;;;;;;;;4416471;32;20293;-59
2021/11/25 09:21:47;;;;;;;31.33;15.73;;;;;;;;;;4428818;32;20316;-59
2021/11/25 09:24:13;;;;;;;26.40;17.47;;;;;;;;;;4429165;32;20682;-58
2021/11/25 09:26:39;;;;;;;28.23;18.20;;;;;;;;;;4418792;32;20705;-59
2021/11/25 09:29:07;;;;;;;29.80;17.67;;;;;;;;;;4419781;32;20313;-60
2021/11/25 09:31:33;;;;;;;26.50;18.10;;;;;;;;;;4418730;32;20205;-59
2021/11/25 09:34:00;;;;;;;36.37;21.77;;;;;;;;;;4419642;32;20347;-59
2021/11/25 09:36:29;;;;;;;29.03;18.37;;;;;;;;;;4419438;32;20270;-60
2021/11/25 09:38:55;;;;;;;47.10;29.83;;;;;;;;;;4419679;32;20652;-58
2021/11/25 09:41:21;;;;;;;41.80;27.13;;;;;;;;;;4419673;32;20201;-59
2021/11/25 09:43:47;;;;;;;33.03;19.67;;;;;;;;;;4419794;32;20256;-59
2021/11/25 09:46:13;;;;;;;32.10;17.63;;;;;;;;;;4419152;32;20272;-59
2021/11/25 09:48:39;;;;;;;28.77;18.07;;;;;;;;;;4419316;32;20276;-59
2021/11/25 09:51:07;;;;;;;31.40;17.30;;;;;;;;;;4418674;32;20467;-59
2021/11/25 09:53:33;;;;;;;30.00;18.73;;;;;;;;;;4417440;32;20229;-59
2021/11/25 09:56:00;;;;;;;29.30;19.53;;;;;;;;;;4418883;32;20272;-58
2021/11/25 09:58:28;;;;;;;36.73;21.23;;;;;;;;;;4414593;32;20635;-59
2021/11/25 10:00:58;;;;;;;35.80;21.33;;;;;;;;;;4403617;32;20267;-59
2021/11/25 10:03:24;;;;;;;31.43;20.53;;;;;;;;;;4418377;32;20225;-59
2021/11/25 10:05:52;;;;;;;36.07;22.63;;;;;;;;;;4418639;32;20268;-58
2021/11/25 10:08:24;;;;;;;31.80;21.23;;;;;;;;;;4417383;32;20367;-60
2021/11/25 10:11:00;;;;;;;31.07;20.57;;;;;;;;;;4417263;32;20618;-60
2021/11/25 10:13:56;;;;;;;30.73;18.80;;;;;;;;;;4418792;32;20260;-60
2021/11/25 10:16:35;;;;;;;43.23;22.03;;;;;;;;;;4417318;32;20244;-60
2021/11/25 10:19:13;;;;;;;44.30;24.13;;;;;;;;;;4418697;32;20266;-59
2021/11/25 10:21:41;;;;;;;50.40;25.87;;;;;;;;;;4415874;32;20430;-59
2021/11/25 10:24:06;;;;;;;48.17;25.43;;;;;;;;;;4416236;32;20267;-59
2021/11/25 10:26:33;;;;;;;37.07;21.87;;;;;;;;;;4416495;32;20217;-59
2021/11/25 10:29:01;;;;;;;35.03;21.57;;;;;;;;;;4416740;32;20716;-59
2021/11/25 10:31:32;;;;;;;33.77;21.23;;;;;;;;;;4416182;32;20243;-59
2021/11/25 10:34:12;;;;;;;39.90;21.60;;;;;;;;;;4416338;32;20233;-58
2021/11/25 10:39:46;;;;;;;43.37;23.03;;;;;;;;;;4418323;32;20662;-59
2021/11/25 10:42:12;;;;;;;29.07;19.63;;;;;;;;;;4418291;32;20263;-60
2021/11/25 10:44:44;;;;;;;42.77;22.33;;;;;;;;;;4417832;32;20344;-58
2021/11/25 10:47:14;;;;;;;33.70;18.17;;;;;;;;;;4418265;32;20312;-59
2021/11/25 10:49:43;;;;;;;34.13;18.97;;;;;;;;;;4418047;32;20259;-60
2021/11/25 10:52:17;;;;;;;28.80;19.30;;;;;;;;;;4418134;32;20399;-59
2021/11/25 10:55:05;;;;;;;41.93;22.07;;;;;;;;;;4408699;32;20263;-59
2021/11/25 10:57:53;;;;;;;37.07;20.77;;;;;;;;;;4417993;32;20259;-59
2021/11/25 11:00:24;;;;;;;43.63;23.80;;;;;;;;;;4416773;32;20358;-59
2021/11/25 11:03:09;;;;;;;40.17;23.53;;;;;;;;;;4417163;32;20244;-59
2021/11/25 11:05:52;;;;;;;43.40;24.50;;;;;;;;;;4417396;32;20609;-60
2021/11/25 11:08:18;;;;;;;29.83;20.50;;;;;;;;;;4414649;32;20232;-60
2021/11/25 11:10:53;;;;;;;35.63;22.10;;;;;;;;;;4414806;32;20323;-61
2021/11/25 11:19:00;;;;;;;122.83;67.40;;;;;;;;;;4414576;32;20669;-57
2021/11/25 11:21:27;;;;;;;51.57;29.37;;;;;;;;;;4415571;32;20208;-58
2021/11/25 11:23:54;;;;;;;44.27;24.73;;;;;;;;;;4414745;32;20250;-59
2021/11/25 11:26:20;;;;;;;45.97;24.67;;;;;;;;;;4417175;32;20545;-60
2021/11/25 11:28:45;;;;;;;37.73;23.53;;;;;;;;;;4417870;32;20220;-59
2021/11/25 11:31:11;;;;;;;54.93;25.37;;;;;;;;;;4417659;32;20268;-59
2021/11/25 11:33:37;;;;;;;36.20;23.17;;;;;;;;;;4415350;32;20297;-58
2021/11/25 11:36:02;;;;;;;48.57;26.97;;;;;;;;;;4415678;32;20528;-59
2021/11/25 11:38:29;;;;;;;102.40;49.60;;;;;;;;;;4415471;32;20308;-59
2021/11/25 11:40:56;;;;;;;46.67;26.43;;;;;;;;;;4400435;32;20264;-59
2021/11/25 11:43:22;;;;;;;41.63;25.07;;;;;;;;;;4408317;32;20328;-59
2021/11/25 11:45:51;;;;;;;58.20;28.97;;;;;;;;;;4415635;32;20296;-60
2021/11/25 11:48:16;;;;;;;61.67;29.53;;;;;;;;;;4415482;32;20713;-59
2021/11/25 11:50:48;;;;;;;49.17;27.83;;;;;;;;;;4416635;32;20272;-59
2021/11/25 11:53:18;;;;;;;56.20;31.20;;;;;;;;;;4413785;32;20736;-59
2021/11/25 11:55:46;;;;;;;180.93;80.13;;;;;;;;;;4402571;32;20645;-59
2021/11/25 11:58:25;;;;;;;112.37;52.87;;;;;;;;;;4409352;32;20256;-58
2021/11/25 12:00:58;;;;;;;42.27;25.47;;;;;;;;;;4420185;32;20637;-59
2021/11/25 12:03:45;;;;;;;47.43;27.57;;;;;;;;;;4420231;32;20221;-59
2021/11/25 12:06:28;;;;;;;78.93;37.43;;;;;;;;;;4419032;32;20229;-58
2021/11/25 12:08:53;;;;;;;85.70;46.30;;;;;;;;;;4420560;32;20917;-59
2021/11/25 12:11:20;;;;;;;109.57;55.50;;;;;;;;;;4420362;32;20238;-59
2021/11/25 12:13:48;;;;;;;48.30;28.73;;;;;;;;;;4418919;32;20229;-58
2021/11/25 12:16:17;;;;;;;44.63;26.63;;;;;;;;;;4420508;32;20751;-58
2021/11/25 12:18:55;;;;;;;51.00;27.90;;;;;;;;;;4411711;32;20697;-59
2021/11/25 12:21:29;;;;;;;47.27;27.63;;;;;;;;;;4405033;32;20243;-59
2021/11/25 12:24:30;;;;;;;41.90;23.27;;;;;;;;;;4403739;32;20233;-59
2021/11/25 12:27:09;;;;;;;42.87;23.83;;;;;;;;;;4404416;32;20259;-59
2021/11/25 12:29:38;;;;;;;52.47;25.70;;;;;;;;;;4405295;32;20226;-58
2021/11/25 12:32:29;;;;;;;44.67;23.80;;;;;;;;;;4405116;32;20193;-58
2021/11/25 12:35:02;;;;;;;45.03;22.07;;;;;;;;;;4405540;32;20217;-58
2021/11/25 12:37:46;;;;;;;38.27;22.40;;;;;;;;;;4405016;32;20205;-59
2021/11/25 12:40:14;;;;;;;35.60;23.00;;;;;;;;;;4405110;32;20265;-60
2021/11/25 12:42:48;;;;;;;39.37;22.67;;;;;;;;;;4409466;32;20221;-59
2021/11/25 12:45:21;;;;;;;36.30;23.20;;;;;;;;;;4420405;32;20717;-60
2021/11/25 12:47:47;;;;;;;42.17;26.03;;;;;;;;;;4419154;32;20210;-59
2021/11/25 12:50:17;;;;;;;53.93;26.00;;;;;;;;;;4418504;32;20303;-59
2021/11/25 12:52:42;;;;;;;42.83;24.37;;;;;;;;;;4418330;32;20665;-59
2021/11/25 12:55:10;;;;;;;45.20;25.27;;;;;;;;;;4419969;32;20307;-59
2021/11/25 12:57:52;;;;;;;43.70;24.27;;;;;;;;;;4419564;32;20264;-59
2021/11/25 13:00:20;;;;;;;36.80;25.20;;;;;;;;;;4420084;32;20204;-58
2021/11/25 13:02:46;;;;;;;40.03;24.03;;;;;;;;;;4413930;32;20221;-60
2021/11/25 13:05:12;;;;;;;39.00;25.70;;;;;;;;;;4419655;32;20315;-61
2021/11/25 13:07:47;;;;;;;43.87;26.03;;;;;;;;;;4415516;32;20255;-58
2021/11/25 13:10:25;;;;;;;43.33;24.30;;;;;;;;;;4404354;32;20213;-60
2021/11/25 13:12:51;;;;;;;35.17;22.53;;;;;;;;;;4404166;32;20537;-59
2021/11/25 13:15:16;;;;;;;40.57;22.70;;;;;;;;;;4402592;32;20221;-58
2021/11/25 13:17:57;;;;;;;36.13;23.50;;;;;;;;;;4402001;32;20260;-59
2021/11/25 13:20:46;;;;;;;35.43;21.57;;;;;;;;;;4401508;32;20769;-59
2021/11/25 13:23:15;;;;;;;49.77;24.63;;;;;;;;;;4400347;32;20228;-59
2021/11/25 13:25:52;;;;;;;38.37;22.17;;;;;;;;;;4400539;32;20210;-59
2021/11/25 13:28:21;;;;;;;26.53;18.10;;;;;;;;;;4402077;32;20327;-59
2021/11/25 13:30:46;;;;;;;34.03;20.07;;;;;;;;;;4403469;32;20225;-60
2021/11/25 13:33:12;;;;;;;30.27;20.73;;;;;;;;;;4403381;32;20279;-60
2021/11/25 13:35:38;;;;;;;34.03;21.83;;;;;;;;;;4401110;32;20697;-59
2021/11/25 13:38:03;;;;;;;49.43;25.80;;;;;;;;;;4401942;32;20237;-59
2021/11/25 13:40:29;;;;;;;34.17;24.63;;;;;;;;;;4400317;32;20659;-59
2021/11/25 13:43:05;;;;;;;43.50;27.13;;;;;;;;;;4407457;32;20709;-59
2021/11/25 13:45:31;;;;;;;73.90;39.37;;;;;;;;;;4402224;32;20324;-59
2021/11/25 13:47:57;;;;;;;44.77;27.37;;;;;;;;;;4402787;32;20221;-59
2021/11/25 13:50:24;;;;;;;39.97;24.93;;;;;;;;;;4402894;32;20268;-59
2021/11/25 13:52:55;;;;;;;56.10;36.83;;;;;;;;;;4402833;32;20247;-59
2021/11/25 13:55:23;;;;;;;57.33;32.03;;;;;;;;;;4402640;32;20282;-59
2021/11/25 13:57:50;;;;;;;43.40;24.43;;;;;;;;;;4403952;32;20328;-59
2021/11/25 14:00:25;;;;;;;38.73;23.00;;;;;;;;;;4416615;32;20610;-60
2021/11/25 14:02:51;;;;;;;39.53;23.57;;;;;;;;;;4410177;32;20243;-58
2021/11/25 14:05:17;;;;;;;47.50;30.03;;;;;;;;;;4413867;32;20309;-60
2021/11/25 14:07:43;;;;;;;44.40;27.47;;;;;;;;;;4414564;32;20213;-59
2021/11/25 14:10:23;;;;;;;43.83;27.70;;;;;;;;;;4415159;32;20755;-59
2021/11/25 14:12:54;;;;;;;51.03;27.90;;;;;;;;;;4414838;32;20786;-59
2021/11/25 14:15:26;;;;;;;49.80;28.30;;;;;;;;;;4416695;32;20276;-59
2021/11/25 14:17:51;;;;;;;53.63;30.37;;;;;;;;;;4416875;32;20548;-60
2021/11/25 14:20:29;;;;;;;52.03;28.27;;;;;;;;;;4417430;32;20612;-59
2021/11/25 14:23:00;;;;;;;53.73;30.10;;;;;;;;;;4416961;32;20299;-59
2021/11/25 14:25:39;;;;;;;50.10;29.97;;;;;;;;;;4416484;32;20212;-59
2021/11/25 14:31:24;;;;;;;47.50;28.10;;;;;;;;;;4413297;32;20635;-58
2021/11/25 14:34:00;;;;;;;52.80;28.17;;;;;;;;;;4416078;32;20232;-59
2021/11/25 14:36:36;;;;;;;49.97;27.27;;;;;;;;;;4415059;32;20224;-59